sensor_id;sensor_type;location;lat;lon;timestamp;pressure;altitude;pressure_sealevel;temperature;humidity
55679;BME280;41573;51.446;-2.018;2023-04-25T00:01:21;101241.09;;;4.97;100.00
55679;BME280;41573;51.446;-2.018;2023-04-25T00:03:47;101242.97;;;4.93;100.00
55679;BME280;41573;51.446;-2.018;2023-04-25T00:06:13;101247.44;;;4.90;100.00
55679;BME280;41573;51.446;-2.018;2023-04-25T00:08:39;101248.31;;;4.90;100.00
55679;BME280;41573;51.446;-2.018;2023-04-25T00:11:04;101257.06;;;4.92;100.00
55679;BME280;41573;51.446;-2.018;2023-04-25T00:13:30;101249.13;;;4.92;100.00
55679;BME280;41573;51.446;-2.018;2023-04-25T08:52:35;101841.66;;;7.61;100.00
55679;BME280;41573;51.446;-2.018;2023-04-25T08:55:01;101859.75;;;7.76;100.00
55679;BME280;41573;51.446;-2.018;2023-04-25T08:57:27;101880.63;;;7.88;100.00
55679;BME280;41573;51.446;-2.018;2023-04-25T08:59:52;101879.75;;;7.89;100.00
55679;BME280;41573;51.446;-2.018;2023-04-25T09:02:18;101895.31;;;8.02;100.00
55679;BME280;41573;51.446;-2.018;2023-04-25T09:04:46;101911.91;;;8.08;100.00
55679;BME280;41573;51.446;-2.018;2023-04-25T09:07:11;101918.88;;;8.13;100.00
55679;BME280;41573;51.446;-2.018;2023-04-25T09:09:37;101937.16;;;8.23;100.00
55679;BME280;41573;51.446;-2.018;2023-04-25T09:12:02;101934.34;;;8.28;100.00
55679;BME280;41573;51.446;-2.018;2023-04-25T09:14:28;101943.97;;;8.32;100.00
55679;BME280;41573;51.446;-2.018;2023-04-25T09:19:26;101940.06;;;8.45;100.00
55679;BME280;41573;51.446;-2.018;2023-04-25T09:21:56;101937.41;;;8.45;100.00
55679;BME280;41573;51.446;-2.018;2023-04-25T09:24:32;101945.22;;;8.52;100.00
55679;BME280;41573;51.446;-2.018;2023-04-25T09:26:58;101951.78;;;8.68;100.00
55679;BME280;41573;51.446;-2.018;2023-04-25T09:29:31;101941.69;;;8.79;100.00
55679;BME280;41573;51.446;-2.018;2023-04-25T09:32:22;101947.84;;;8.82;100.00
55679;BME280;41573;51.446;-2.018;2023-04-25T09:34:50;101931.44;;;8.97;100.00
55679;BME280;41573;51.446;-2.018;2023-04-25T09:37:27;101920.31;;;9.12;100.00
55679;BME280;41573;51.446;-2.018;2023-04-25T09:39:58;101922.97;;;8.84;100.00
55679;BME280;41573;51.446;-2.018;2023-04-25T09:42:26;101894.94;;;9.02;100.00
55679;BME280;41573;51.446;-2.018;2023-04-25T09:44:55;101898.22;;;9.10;100.00
55679;BME280;41573;51.446;-2.018;2023-04-25T09:47:22;101904.50;;;9.08;100.00
55679;BME280;41573;51.446;-2.018;2023-04-25T09:49:49;101891.63;;;8.94;100.00
55679;BME280;41573;51.446;-2.018;2023-04-25T09:52:20;101871.97;;;9.00;100.00
55679;BME280;41573;51.446;-2.018;2023-04-25T09:54:46;101869.09;;;9.07;100.00
55679;BME280;41573;51.446;-2.018;2023-04-25T09:57:23;101865.06;;;9.21;100.00
55679;BME280;41573;51.446;-2.018;2023-04-25T09:59:50;101860.38;;;9.29;100.00
55679;BME280;41573;51.446;-2.018;2023-04-25T10:02:18;101845.28;;;9.29;100.00
55679;BME280;41573;51.446;-2.018;2023-04-25T10:04:49;101841.41;;;9.40;100.00
55679;BME280;41573;51.446;-2.018;2023-04-25T10:07:16;101848.66;;;9.60;100.00
55679;BME280;41573;51.446;-2.018;2023-04-25T10:09:43;101837.59;;;9.72;100.00
55679;BME280;41573;51.446;-2.018;2023-04-25T10:12:12;101789.44;;;9.55;100.00
55679;BME280;41573;51.446;-2.018;2023-04-25T10:14:38;101762.00;;;9.78;100.00
55679;BME280;41573;51.446;-2.018;2023-04-25T10:17:03;101713.16;;;9.57;100.00
55679;BME280;41573;51.446;-2.018;2023-04-25T10:19:29;101731.41;;;9.66;100.00
55679;BME280;41573;51.446;-2.018;2023-04-25T10:22:13;101630.31;;;9.66;100.00
55679;BME280;41573;51.446;-2.018;2023-04-25T10:24:40;101621.72;;;9.81;100.00
55679;BME280;41573;51.446;-2.018;2023-04-25T10:27:06;101564.97;;;10.03;100.00
55679;BME280;41573;51.446;-2.018;2023-04-25T10:29:32;101437.59;;;10.14;100.00
55679;BME280;41573;51.446;-2.018;2023-04-25T10:31:57;101299.13;;;10.16;100.00
55679;BME280;41573;51.446;-2.018;2023-04-25T10:34:40;101208.88;;;10.29;100.00
55679;BME280;41573;51.446;-2.018;2023-04-25T10:37:09;101116.09;;;10.04;100.00
55679;BME280;41573;51.446;-2.018;2023-04-25T10:39:35;101073.91;;;10.31;100.00
55679;BME280;41573;51.446;-2.018;2023-04-25T10:42:02;101052.78;;;10.45;100.00
55679;BME280;41573;51.446;-2.018;2023-04-25T10:44:28;101077.69;;;10.62;100.00
55679;BME280;41573;51.446;-2.018;2023-04-25T10:46:59;101090.75;;;10.66;100.00
55679;BME280;41573;51.446;-2.018;2023-04-25T10:49:36;101053.38;;;10.68;100.00
55679;BME280;41573;51.446;-2.018;2023-04-25T10:52:34;101050.00;;;10.82;100.00
55679;BME280;41573;51.446;-2.018;2023-04-25T10:55:02;101020.47;;;10.69;100.00
55679;BME280;41573;51.446;-2.018;2023-04-25T10:57:41;100959.38;;;10.66;100.00
55679;BME280;41573;51.446;-2.018;2023-04-25T11:00:15;100962.81;;;10.52;100.00
55679;BME280;41573;51.446;-2.018;2023-04-25T11:02:49;100976.34;;;10.30;100.00
55679;BME280;41573;51.446;-2.018;2023-04-25T11:05:22;100955.28;;;10.43;100.00
55679;BME280;41573;51.446;-2.018;2023-04-25T11:07:54;100967.69;;;10.60;100.00
55679;BME280;41573;51.446;-2.018;2023-04-25T11:10:30;100968.59;;;10.76;100.00
55679;BME280;41573;51.446;-2.018;2023-04-25T11:12:56;100998.00;;;10.91;100.00
55679;BME280;41573;51.446;-2.018;2023-04-25T11:15:22;100988.91;;;10.95;100.00
55679;BME280;41573;51.446;-2.018;2023-04-25T11:17:48;100973.41;;;11.01;100.00
55679;BME280;41573;51.446;-2.018;2023-04-25T11:20:13;100932.06;;;10.78;100.00
55679;BME280;41573;51.446;-2.018;2023-04-25T11:22:41;100973.66;;;10.97;100.00
55679;BME280;41573;51.446;-2.018;2023-04-25T11:25:11;101006.44;;;10.99;100.00
55679;BME280;41573;51.446;-2.018;2023-04-25T11:27:38;101019.31;;;11.07;100.00
55679;BME280;41573;51.446;-2.018;2023-04-25T11:30:15;100979.53;;;11.03;100.00
55679;BME280;41573;51.446;-2.018;2023-04-25T11:32:41;100979.16;;;11.42;100.00
55679;BME280;41573;51.446;-2.018;2023-04-25T11:35:07;100973.19;;;11.52;100.00
55679;BME280;41573;51.446;-2.018;2023-04-25T11:37:32;101012.91;;;11.73;100.00
55679;BME280;41573;51.446;-2.018;2023-04-25T11:39:59;101047.06;;;11.82;100.00
55679;BME280;41573;51.446;-2.018;2023-04-25T11:42:25;101003.28;;;11.70;100.00
55679;BME280;41573;51.446;-2.018;2023-04-25T11:44:50;100965.88;;;11.86;100.00
55679;BME280;41573;51.446;-2.018;2023-04-25T11:47:16;100991.22;;;11.79;100.00
55679;BME280;41573;51.446;-2.018;2023-04-25T11:49:41;101045.94;;;11.86;100.00
55679;BME280;41573;51.446;-2.018;2023-04-25T11:52:07;101004.03;;;11.88;100.00
55679;BME280;41573;51.446;-2.018;2023-04-25T11:54:35;100985.69;;;11.82;100.00
55679;BME280;41573;51.446;-2.018;2023-04-25T11:57:01;100958.25;;;11.80;100.00
55679;BME280;41573;51.446;-2.018;2023-04-25T11:59:26;100982.66;;;11.88;100.00
55679;BME280;41573;51.446;-2.018;2023-04-25T12:01:52;101000.75;;;12.14;100.00
55679;BME280;41573;51.446;-2.018;2023-04-25T12:04:23;101052.69;;;12.38;100.00
55679;BME280;41573;51.446;-2.018;2023-04-25T12:06:52;101045.41;;;12.56;100.00
55679;BME280;41573;51.446;-2.018;2023-04-25T12:09:39;101021.31;;;12.42;100.00
55679;BME280;41573;51.446;-2.018;2023-04-25T12:12:09;100971.53;;;12.70;100.00
55679;BME280;41573;51.446;-2.018;2023-04-25T12:14:35;100981.00;;;13.03;100.00
55679;BME280;41573;51.446;-2.018;2023-04-25T12:17:02;100988.25;;;13.15;100.00
55679;BME280;41573;51.446;-2.018;2023-04-25T12:19:33;101004.66;;;13.09;100.00
55679;BME280;41573;51.446;-2.018;2023-04-25T12:22:01;100658.69;;;12.99;100.00
55679;BME280;41573;51.446;-2.018;2023-04-25T12:24:28;99946.56;;;13.13;100.00
55679;BME280;41573;51.446;-2.018;2023-04-25T12:27:05;100006.22;;;13.02;100.00
55679;BME280;41573;51.446;-2.018;2023-04-25T12:29:34;100003.66;;;13.11;100.00
55679;BME280;41573;51.446;-2.018;2023-04-25T12:32:00;99944.75;;;12.90;100.00
55679;BME280;41573;51.446;-2.018;2023-04-25T12:34:27;99910.75;;;13.04;100.00
55679;BME280;41573;51.446;-2.018;2023-04-25T12:36:52;99834.91;;;13.16;100.00
55679;BME280;41573;51.446;-2.018;2023-04-25T12:39:22;99814.91;;;13.20;100.00
55679;BME280;41573;51.446;-2.018;2023-04-25T12:41:49;99852.47;;;13.19;100.00
55679;BME280;41573;51.446;-2.018;2023-04-25T12:44:15;99783.78;;;13.31;100.00
55679;BME280;41573;51.446;-2.018;2023-04-25T12:46:41;99825.06;;;13.05;100.00
55679;BME280;41573;51.446;-2.018;2023-04-25T12:49:07;99831.69;;;13.22;100.00
55679;BME280;41573;51.446;-2.018;2023-04-25T12:51:34;99758.06;;;13.18;100.00
55679;BME280;41573;51.446;-2.018;2023-04-25T12:54:00;99820.53;;;13.17;100.00
55679;BME280;41573;51.446;-2.018;2023-04-25T12:56:27;99844.75;;;13.04;100.00
55679;BME280;41573;51.446;-2.018;2023-04-25T12:58:52;99790.34;;;13.05;100.00
55679;BME280;41573;51.446;-2.018;2023-04-25T13:01:19;99732.59;;;12.82;100.00
55679;BME280;41573;51.446;-2.018;2023-04-25T13:03:44;99790.59;;;12.58;100.00
55679;BME280;41573;51.446;-2.018;2023-04-25T13:06:09;99853.00;;;12.46;100.00
55679;BME280;41573;51.446;-2.018;2023-04-25T13:08:35;99952.53;;;12.26;100.00
55679;BME280;41573;51.446;-2.018;2023-04-25T13:11:02;99846.69;;;12.58;100.00
55679;BME280;41573;51.446;-2.018;2023-04-25T13:13:28;99805.34;;;12.85;100.00
55679;BME280;41573;51.446;-2.018;2023-04-25T13:15:54;99808.03;;;13.18;100.00
55679;BME280;41573;51.446;-2.018;2023-04-25T13:18:19;99984.34;;;13.19;100.00
55679;BME280;41573;51.446;-2.018;2023-04-25T13:20:45;100014.47;;;13.44;100.00
55679;BME280;41573;51.446;-2.018;2023-04-25T13:23:11;100048.88;;;13.37;100.00
55679;BME280;41573;51.446;-2.018;2023-04-25T13:25:37;99741.00;;;13.83;100.00
55679;BME280;41573;51.446;-2.018;2023-04-25T13:28:02;99779.16;;;13.54;100.00
55679;BME280;41573;51.446;-2.018;2023-04-25T13:30:28;99894.50;;;13.28;100.00
55679;BME280;41573;51.446;-2.018;2023-04-25T13:32:53;99801.78;;;12.96;100.00
55679;BME280;41573;51.446;-2.018;2023-04-25T13:35:21;99876.78;;;12.72;100.00
55679;BME280;41573;51.446;-2.018;2023-04-25T13:37:46;100156.22;;;12.39;100.00
55679;BME280;41573;51.446;-2.018;2023-04-25T13:40:12;100082.38;;;12.27;100.00
55679;BME280;41573;51.446;-2.018;2023-04-25T13:42:39;100026.44;;;12.01;100.00
55679;BME280;41573;51.446;-2.018;2023-04-25T13:45:05;99951.13;;;11.97;100.00
55679;BME280;41573;51.446;-2.018;2023-04-25T13:47:30;100056.47;;;11.92;100.00
55679;BME280;41573;51.446;-2.018;2023-04-25T13:49:56;100018.84;;;11.83;100.00
55679;BME280;41573;51.446;-2.018;2023-04-25T13:52:22;99891.13;;;13.15;100.00
55679;BME280;41573;51.446;-2.018;2023-04-25T13:54:49;100025.03;;;13.89;100.00
55679;BME280;41573;51.446;-2.018;2023-04-25T13:57:15;100090.69;;;14.70;100.00
55679;BME280;41573;51.446;-2.018;2023-04-25T13:59:40;99812.84;;;16.71;100.00
55679;BME280;41573;51.446;-2.018;2023-04-25T14:02:06;100062.44;;;16.76;100.00
55679;BME280;41573;51.446;-2.018;2023-04-25T14:04:32;100085.63;;;16.77;100.00
55679;BME280;41573;51.446;-2.018;2023-04-25T14:06:58;100331.06;;;15.97;100.00
55679;BME280;41573;51.446;-2.018;2023-04-25T14:09:23;100355.38;;;15.21;100.00
55679;BME280;41573;51.446;-2.018;2023-04-25T14:11:54;100498.25;;;14.44;100.00
55679;BME280;41573;51.446;-2.018;2023-04-25T14:14:21;100259.19;;;14.95;100.00
55679;BME280;41573;51.446;-2.018;2023-04-25T14:16:47;100438.59;;;14.53;100.00
55679;BME280;41573;51.446;-2.018;2023-04-25T14:19:16;100585.19;;;14.28;100.00
55679;BME280;41573;51.446;-2.018;2023-04-25T14:21:42;100233.38;;;15.98;100.00
55679;BME280;41573;51.446;-2.018;2023-04-25T14:24:11;100251.50;;;15.75;100.00
55679;BME280;41573;51.446;-2.018;2023-04-25T14:26:36;100659.66;;;14.83;100.00
55679;BME280;41573;51.446;-2.018;2023-04-25T14:29:03;100466.09;;;14.44;100.00
55679;BME280;41573;51.446;-2.018;2023-04-25T14:31:28;100533.16;;;13.95;100.00
55679;BME280;41573;51.446;-2.018;2023-04-25T14:33:53;100347.06;;;13.67;100.00
55679;BME280;41573;51.446;-2.018;2023-04-25T14:36:19;100188.09;;;13.47;100.00
55679;BME280;41573;51.446;-2.018;2023-04-25T14:38:45;100167.63;;;13.23;100.00
55679;BME280;41573;51.446;-2.018;2023-04-25T14:41:10;100129.19;;;13.13;100.00
55679;BME280;41573;51.446;-2.018;2023-04-25T14:43:36;100141.94;;;12.98;100.00
55679;BME280;41573;51.446;-2.018;2023-04-25T14:46:02;100059.59;;;12.92;100.00
55679;BME280;41573;51.446;-2.018;2023-04-25T14:48:29;100127.09;;;12.83;100.00
55679;BME280;41573;51.446;-2.018;2023-04-25T14:50:54;100020.91;;;12.73;100.00
55679;BME280;41573;51.446;-2.018;2023-04-25T14:53:21;99882.41;;;13.13;100.00
55679;BME280;41573;51.446;-2.018;2023-04-25T14:55:47;99867.50;;;13.42;100.00
55679;BME280;41573;51.446;-2.018;2023-04-25T14:58:14;99946.88;;;13.74;100.00
55679;BME280;41573;51.446;-2.018;2023-04-25T15:00:39;100123.66;;;13.39;100.00
55679;BME280;41573;51.446;-2.018;2023-04-25T15:03:05;100047.31;;;13.23;100.00
55679;BME280;41573;51.446;-2.018;2023-04-25T15:05:32;100210.41;;;13.12;100.00
55679;BME280;41573;51.446;-2.018;2023-04-25T15:07:58;100129.72;;;13.30;100.00
55679;BME280;41573;51.446;-2.018;2023-04-25T15:10:23;99952.66;;;13.58;100.00
55679;BME280;41573;51.446;-2.018;2023-04-25T15:12:49;99919.97;;;13.87;100.00
55679;BME280;41573;51.446;-2.018;2023-04-25T15:15:15;99906.63;;;13.76;100.00
55679;BME280;41573;51.446;-2.018;2023-04-25T15:17:41;100214.31;;;13.31;100.00
55679;BME280;41573;51.446;-2.018;2023-04-25T15:20:09;100345.31;;;12.95;100.00
55679;BME280;41573;51.446;-2.018;2023-04-25T15:22:41;100145.97;;;13.04;100.00
55679;BME280;41573;51.446;-2.018;2023-04-25T15:25:08;100034.66;;;12.91;100.00
55679;BME280;41573;51.446;-2.018;2023-04-25T15:27:37;100265.03;;;12.48;100.00
55679;BME280;41573;51.446;-2.018;2023-04-25T15:30:06;100250.44;;;12.41;100.00
55679;BME280;41573;51.446;-2.018;2023-04-25T15:32:33;100049.47;;;12.26;100.00
55679;BME280;41573;51.446;-2.018;2023-04-25T15:34:58;100032.09;;;12.20;100.00
55679;BME280;41573;51.446;-2.018;2023-04-25T15:37:23;100014.34;;;12.08;100.00
55679;BME280;41573;51.446;-2.018;2023-04-25T15:40:00;99974.91;;;12.00;100.00
55679;BME280;41573;51.446;-2.018;2023-04-25T15:42:26;100139.31;;;11.90;100.00
55679;BME280;41573;51.446;-2.018;2023-04-25T15:44:51;100057.13;;;11.95;100.00
55679;BME280;41573;51.446;-2.018;2023-04-25T15:47:17;100011.63;;;11.97;100.00
55679;BME280;41573;51.446;-2.018;2023-04-25T15:49:42;100013.34;;;11.98;100.00
55679;BME280;41573;51.446;-2.018;2023-04-25T15:52:07;100084.00;;;11.92;100.00
55679;BME280;41573;51.446;-2.018;2023-04-25T15:54:33;100023.09;;;12.10;100.00
55679;BME280;41573;51.446;-2.018;2023-04-25T15:56:58;100163.16;;;12.17;100.00
55679;BME280;41573;51.446;-2.018;2023-04-25T15:59:24;100116.56;;;12.21;100.00
55679;BME280;41573;51.446;-2.018;2023-04-25T16:01:49;100176.38;;;12.43;100.00
55679;BME280;41573;51.446;-2.018;2023-04-25T16:04:14;100236.03;;;12.55;100.00
55679;BME280;41573;51.446;-2.018;2023-04-25T16:06:39;100278.28;;;12.74;100.00
55679;BME280;41573;51.446;-2.018;2023-04-25T16:09:06;100230.03;;;13.00;100.00
55679;BME280;41573;51.446;-2.018;2023-04-25T16:11:32;100105.44;;;13.99;100.00
55679;BME280;41573;51.446;-2.018;2023-04-25T16:13:57;100146.09;;;15.11;100.00
55679;BME280;41573;51.446;-2.018;2023-04-25T16:16:23;100262.13;;;15.56;100.00
55679;BME280;41573;51.446;-2.018;2023-04-25T16:18:48;100364.34;;;15.85;100.00
55679;BME280;41573;51.446;-2.018;2023-04-25T16:21:14;100458.94;;;15.45;100.00
55679;BME280;41573;51.446;-2.018;2023-04-25T16:23:43;100411.41;;;15.68;100.00
55679;BME280;41573;51.446;-2.018;2023-04-25T16:26:12;100404.28;;;16.20;100.00
55679;BME280;41573;51.446;-2.018;2023-04-25T16:28:37;100389.06;;;16.81;100.00
55679;BME280;41573;51.446;-2.018;2023-04-25T16:31:02;100340.75;;;17.20;100.00
55679;BME280;41573;51.446;-2.018;2023-04-25T16:33:28;100437.47;;;17.22;100.00
55679;BME280;41573;51.446;-2.018;2023-04-25T16:35:53;100364.50;;;17.05;100.00
55679;BME280;41573;51.446;-2.018;2023-04-25T16:38:18;100411.31;;;16.43;100.00
55679;BME280;41573;51.446;-2.018;2023-04-25T16:40:44;100488.19;;;15.59;100.00
55679;BME280;41573;51.446;-2.018;2023-04-25T16:43:09;100406.56;;;14.86;100.00
55679;BME280;41573;51.446;-2.018;2023-04-25T16:45:34;100503.31;;;14.13;100.00
55679;BME280;41573;51.446;-2.018;2023-04-25T16:48:00;100511.41;;;13.65;100.00
55679;BME280;41573;51.446;-2.018;2023-04-25T16:50:25;100294.03;;;13.25;100.00
55679;BME280;41573;51.446;-2.018;2023-04-25T16:52:51;100277.75;;;12.93;100.00
55679;BME280;41573;51.446;-2.018;2023-04-25T16:55:16;100382.88;;;12.56;100.00
55679;BME280;41573;51.446;-2.018;2023-04-25T16:57:42;100276.63;;;12.84;100.00
55679;BME280;41573;51.446;-2.018;2023-04-25T17:00:08;100228.59;;;13.54;100.00
55679;BME280;41573;51.446;-2.018;2023-04-25T17:02:33;100265.81;;;14.02;100.00
55679;BME280;41573;51.446;-2.018;2023-04-25T17:04:59;100286.63;;;14.21;100.00
55679;BME280;41573;51.446;-2.018;2023-04-25T17:07:24;100447.56;;;14.18;100.00
55679;BME280;41573;51.446;-2.018;2023-04-25T17:09:50;100456.53;;;13.94;100.00
55679;BME280;41573;51.446;-2.018;2023-04-25T17:12:19;100350.03;;;14.09;100.00
55679;BME280;41573;51.446;-2.018;2023-04-25T17:14:45;100494.28;;;14.14;100.00
55679;BME280;41573;51.446;-2.018;2023-04-25T17:17:11;100366.75;;;14.36;100.00
55679;BME280;41573;51.446;-2.018;2023-04-25T17:19:37;100397.44;;;14.43;100.00
55679;BME280;41573;51.446;-2.018;2023-04-25T17:22:02;100234.50;;;14.25;100.00
55679;BME280;41573;51.446;-2.018;2023-04-25T17:24:27;100216.66;;;14.14;100.00
55679;BME280;41573;51.446;-2.018;2023-04-25T17:26:53;100396.50;;;13.97;100.00
55679;BME280;41573;51.446;-2.018;2023-04-25T17:29:18;100389.31;;;13.75;100.00
55679;BME280;41573;51.446;-2.018;2023-04-25T17:31:45;100275.56;;;13.69;100.00
55679;BME280;41573;51.446;-2.018;2023-04-25T17:34:11;100305.22;;;13.55;100.00
55679;BME280;41573;51.446;-2.018;2023-04-25T17:36:42;100494.53;;;13.14;100.00
55679;BME280;41573;51.446;-2.018;2023-04-25T17:39:07;100402.44;;;13.18;100.00
55679;BME280;41573;51.446;-2.018;2023-04-25T17:41:36;100325.19;;;13.02;100.00
55679;BME280;41573;51.446;-2.018;2023-04-25T17:44:02;100392.28;;;12.86;100.00
55679;BME280;41573;51.446;-2.018;2023-04-25T17:46:27;100395.34;;;12.93;100.00
55679;BME280;41573;51.446;-2.018;2023-04-25T17:48:53;100451.78;;;13.01;100.00
55679;BME280;41573;51.446;-2.018;2023-04-25T17:51:19;100461.56;;;12.89;100.00
55679;BME280;41573;51.446;-2.018;2023-04-25T17:53:44;100449.06;;;12.77;100.00
55679;BME280;41573;51.446;-2.018;2023-04-25T17:56:09;100449.19;;;12.63;100.00
55679;BME280;41573;51.446;-2.018;2023-04-25T17:58:35;100384.78;;;12.54;100.00
55679;BME280;41573;51.446;-2.018;2023-04-25T18:01:00;100461.19;;;12.31;100.00
55679;BME280;41573;51.446;-2.018;2023-04-25T18:03:28;100391.00;;;12.29;100.00
55679;BME280;41573;51.446;-2.018;2023-04-25T18:05:53;100454.56;;;12.11;100.00
55679;BME280;41573;51.446;-2.018;2023-04-25T18:08:18;100376.94;;;12.01;100.00
55679;BME280;41573;51.446;-2.018;2023-04-25T18:10:46;100405.97;;;12.06;100.00
55679;BME280;41573;51.446;-2.018;2023-04-25T18:13:11;100429.16;;;12.18;100.00
55679;BME280;41573;51.446;-2.018;2023-04-25T18:15:37;100446.66;;;12.22;100.00
55679;BME280;41573;51.446;-2.018;2023-04-25T18:18:02;100437.16;;;12.18;100.00
55679;BME280;41573;51.446;-2.018;2023-04-25T18:20:33;100409.69;;;12.03;100.00
55679;BME280;41573;51.446;-2.018;2023-04-25T18:22:58;100473.19;;;11.85;100.00
55679;BME280;41573;51.446;-2.018;2023-04-25T18:25:25;100437.25;;;11.64;100.00
55679;BME280;41573;51.446;-2.018;2023-04-25T18:27:50;100426.53;;;11.51;100.00
55679;BME280;41573;51.446;-2.018;2023-04-25T18:30:16;100405.19;;;11.38;100.00
55679;BME280;41573;51.446;-2.018;2023-04-25T18:32:41;100360.03;;;11.22;100.00
55679;BME280;41573;51.446;-2.018;2023-04-25T18:35:07;100392.72;;;11.11;100.00
55679;BME280;41573;51.446;-2.018;2023-04-25T18:37:34;100372.22;;;10.99;100.00
55679;BME280;41573;51.446;-2.018;2023-04-25T18:39:59;100404.56;;;10.93;100.00
55679;BME280;41573;51.446;-2.018;2023-04-25T18:42:30;100417.09;;;11.05;100.00
55679;BME280;41573;51.446;-2.018;2023-04-25T18:44:55;100403.03;;;11.03;100.00
55679;BME280;41573;51.446;-2.018;2023-04-25T18:47:20;100394.97;;;10.90;100.00
55679;BME280;41573;51.446;-2.018;2023-04-25T18:49:46;100320.63;;;10.73;100.00
55679;BME280;41573;51.446;-2.018;2023-04-25T18:52:12;100290.63;;;10.56;100.00
55679;BME280;41573;51.446;-2.018;2023-04-25T18:54:40;100287.25;;;10.40;100.00
55679;BME280;41573;51.446;-2.018;2023-04-25T18:57:05;100304.25;;;10.23;100.00
55679;BME280;41573;51.446;-2.018;2023-04-25T18:59:32;100305.00;;;10.10;100.00
55679;BME280;41573;51.446;-2.018;2023-04-25T19:01:58;100302.00;;;10.02;100.00
55679;BME280;41573;51.446;-2.018;2023-04-25T19:04:26;100295.53;;;9.92;100.00
55679;BME280;41573;51.446;-2.018;2023-04-25T19:06:52;100258.00;;;9.82;100.00
55679;BME280;41573;51.446;-2.018;2023-04-25T19:09:18;100219.63;;;9.72;100.00
55679;BME280;41573;51.446;-2.018;2023-04-25T19:11:44;100207.03;;;9.61;100.00
55679;BME280;41573;51.446;-2.018;2023-04-25T19:14:10;100218.03;;;9.55;100.00
55679;BME280;41573;51.446;-2.018;2023-04-25T19:16:35;100202.66;;;9.45;100.00
55679;BME280;41573;51.446;-2.018;2023-04-25T19:19:04;100197.16;;;9.34;100.00
55679;BME280;41573;51.446;-2.018;2023-04-25T19:21:31;100212.69;;;9.26;100.00
55679;BME280;41573;51.446;-2.018;2023-04-25T19:23:57;100209.66;;;9.18;100.00
55679;BME280;41573;51.446;-2.018;2023-04-25T19:26:23;100192.56;;;9.07;100.00
55679;BME280;41573;51.446;-2.018;2023-04-25T19:29:04;100169.78;;;9.03;100.00
55679;BME280;41573;51.446;-2.018;2023-04-25T19:31:31;100121.69;;;8.93;100.00
55679;BME280;41573;51.446;-2.018;2023-04-25T19:33:57;100083.06;;;8.88;100.00
55679;BME280;41573;51.446;-2.018;2023-04-25T19:36:23;100046.38;;;8.80;100.00
55679;BME280;41573;51.446;-2.018;2023-04-25T19:38:49;100003.31;;;8.75;100.00
55679;BME280;41573;51.446;-2.018;2023-04-25T19:41:15;100002.94;;;8.67;100.00
55679;BME280;41573;51.446;-2.018;2023-04-25T19:43:40;99989.00;;;8.63;100.00
55679;BME280;41573;51.446;-2.018;2023-04-25T19:46:06;99966.34;;;8.57;100.00
55679;BME280;41573;51.446;-2.018;2023-04-25T19:48:31;99979.88;;;8.53;100.00
55679;BME280;41573;51.446;-2.018;2023-04-25T19:50:57;99953.53;;;8.50;100.00
55679;BME280;41573;51.446;-2.018;2023-04-25T19:53:22;99953.84;;;8.45;100.00
55679;BME280;41573;51.446;-2.018;2023-04-25T19:55:47;99939.88;;;8.41;100.00
55679;BME280;41573;51.446;-2.018;2023-04-25T19:58:13;99939.72;;;8.44;100.00
55679;BME280;41573;51.446;-2.018;2023-04-25T20:00:38;99937.22;;;8.41;100.00
55679;BME280;41573;51.446;-2.018;2023-04-25T20:03:04;99929.63;;;8.35;100.00
55679;BME280;41573;51.446;-2.018;2023-04-25T20:05:29;99924.72;;;8.29;100.00
55679;BME280;41573;51.446;-2.018;2023-04-25T20:07:57;99915.31;;;8.23;100.00
55679;BME280;41573;51.446;-2.018;2023-04-25T20:10:22;99890.13;;;8.16;100.00
55679;BME280;41573;51.446;-2.018;2023-04-25T20:12:48;99882.53;;;8.10;100.00
55679;BME280;41573;51.446;-2.018;2023-04-25T20:15:16;99867.84;;;8.04;100.00
55679;BME280;41573;51.446;-2.018;2023-04-25T20:17:41;99853.09;;;8.00;100.00
55679;BME280;41573;51.446;-2.018;2023-04-25T20:20:08;99840.19;;;7.94;100.00
55679;BME280;41573;51.446;-2.018;2023-04-25T20:22:35;99830.72;;;7.90;100.00
55679;BME280;41573;51.446;-2.018;2023-04-25T20:25:05;99813.03;;;7.90;100.00
55679;BME280;41573;51.446;-2.018;2023-04-25T20:27:32;99819.38;;;7.88;100.00
55679;BME280;41573;51.446;-2.018;2023-04-25T20:29:57;99811.03;;;7.80;100.00
55679;BME280;41573;51.446;-2.018;2023-04-25T20:32:27;99818.22;;;7.78;100.00
55679;BME280;41573;51.446;-2.018;2023-04-25T20:34:52;99812.97;;;7.62;100.00
55679;BME280;41573;51.446;-2.018;2023-04-25T20:37:18;99855.06;;;7.52;100.00
55679;BME280;41573;51.446;-2.018;2023-04-25T20:39:44;99859.63;;;7.50;100.00
55679;BME280;41573;51.446;-2.018;2023-04-25T20:42:27;99865.53;;;7.55;100.00
55679;BME280;41573;51.446;-2.018;2023-04-25T20:44:52;99845.28;;;7.68;100.00
55679;BME280;41573;51.446;-2.018;2023-04-25T20:47:19;99838.47;;;7.79;100.00
55679;BME280;41573;51.446;-2.018;2023-04-25T20:49:44;99835.19;;;7.89;100.00
55679;BME280;41573;51.446;-2.018;2023-04-25T20:52:10;99848.53;;;8.02;100.00
55679;BME280;41573;51.446;-2.018;2023-04-25T20:54:36;99858.75;;;8.08;100.00
55679;BME280;41573;51.446;-2.018;2023-04-25T20:57:02;99853.94;;;8.15;100.00
55679;BME280;41573;51.446;-2.018;2023-04-25T20:59:27;99867.28;;;8.14;100.00
55679;BME280;41573;51.446;-2.018;2023-04-25T21:01:53;99872.50;;;8.15;100.00
55679;BME280;41573;51.446;-2.018;2023-04-25T21:04:19;99895.69;;;8.11;100.00
55679;BME280;41573;51.446;-2.018;2023-04-25T21:06:44;99902.16;;;8.07;100.00
55679;BME280;41573;51.446;-2.018;2023-04-25T21:09:10;99924.69;;;8.00;100.00
55679;BME280;41573;51.446;-2.018;2023-04-25T21:11:36;99951.38;;;7.97;100.00
55679;BME280;41573;51.446;-2.018;2023-04-25T21:14:02;99948.47;;;8.02;100.00